sensor_id;sensor_type;location;lat;lon;timestamp;temperature;humidity
27781;DHT22;15167;1.318;103.762;2023-03-01T00:02:21;22.00;99.90
27781;DHT22;15167;1.318;103.762;2023-03-01T00:04:47;22.00;99.90
27781;DHT22;15167;1.318;103.762;2023-03-01T00:07:13;22.00;99.90
27781;DHT22;15167;1.318;103.762;2023-03-01T00:09:39;22.00;99.90
27781;DHT22;15167;1.318;103.762;2023-03-01T00:12:06;22.00;99.90
27781;DHT22;15167;1.318;103.762;2023-03-01T00:14:32;22.00;99.90
27781;DHT22;15167;1.318;103.762;2023-03-01T00:16:59;22.00;99.90
27781;DHT22;15167;1.318;103.762;2023-03-01T00:19:25;22.00;99.90
27781;DHT22;15167;1.318;103.762;2023-03-01T00:21:51;22.00;99.90
27781;DHT22;15167;1.318;103.762;2023-03-01T00:24:17;22.00;99.90
27781;DHT22;15167;1.318;103.762;2023-03-01T00:26:43;22.00;99.90
27781;DHT22;15167;1.318;103.762;2023-03-01T00:29:09;22.10;99.90
27781;DHT22;15167;1.318;103.762;2023-03-01T00:31:35;22.00;99.90
27781;DHT22;15167;1.318;103.762;2023-03-01T00:34:03;22.10;99.90
27781;DHT22;15167;1.318;103.762;2023-03-01T00:36:30;22.10;99.90
27781;DHT22;15167;1.318;103.762;2023-03-01T00:38:57;22.10;99.90
27781;DHT22;15167;1.318;103.762;2023-03-01T00:41:24;22.10;99.90
27781;DHT22;15167;1.318;103.762;2023-03-01T00:43:52;22.10;99.90
27781;DHT22;15167;1.318;103.762;2023-03-01T00:46:19;22.10;99.90
27781;DHT22;15167;1.318;103.762;2023-03-01T00:48:45;22.20;99.90
27781;DHT22;15167;1.318;103.762;2023-03-01T00:53:38;22.20;99.90
27781;DHT22;15167;1.318;103.762;2023-03-01T00:56:05;22.20;99.90
27781;DHT22;15167;1.318;103.762;2023-03-01T00:58:31;22.30;99.90
27781;DHT22;15167;1.318;103.762;2023-03-01T01:00:58;22.30;99.90
27781;DHT22;15167;1.318;103.762;2023-03-01T01:03:24;22.30;99.90
27781;DHT22;15167;1.318;103.762;2023-03-01T01:05:53;22.40;99.90
27781;DHT22;15167;1.318;103.762;2023-03-01T01:08:20;22.40;99.90
27781;DHT22;15167;1.318;103.762;2023-03-01T01:10:46;22.50;99.90
27781;DHT22;15167;1.318;103.762;2023-03-01T01:13:12;22.50;99.90
27781;DHT22;15167;1.318;103.762;2023-03-01T01:15:39;22.60;99.90
27781;DHT22;15167;1.318;103.762;2023-03-01T01:18:06;22.70;99.90
27781;DHT22;15167;1.318;103.762;2023-03-01T01:20:32;22.70;99.90
27781;DHT22;15167;1.318;103.762;2023-03-01T01:22:58;22.80;99.90
27781;DHT22;15167;1.318;103.762;2023-03-01T01:25:24;22.80;99.90
27781;DHT22;15167;1.318;103.762;2023-03-01T01:27:51;22.90;99.90
27781;DHT22;15167;1.318;103.762;2023-03-01T01:30:17;22.90;99.90
27781;DHT22;15167;1.318;103.762;2023-03-01T01:32:43;23.00;99.90
27781;DHT22;15167;1.318;103.762;2023-03-01T01:35:09;23.00;99.90
27781;DHT22;15167;1.318;103.762;2023-03-01T01:37:35;23.00;99.90
27781;DHT22;15167;1.318;103.762;2023-03-01T01:40:01;23.10;99.90
27781;DHT22;15167;1.318;103.762;2023-03-01T01:42:29;23.10;99.90
27781;DHT22;15167;1.318;103.762;2023-03-01T01:47:40;23.10;99.90
27781;DHT22;15167;1.318;103.762;2023-03-01T01:50:08;23.10;99.90
27781;DHT22;15167;1.318;103.762;2023-03-01T01:52:35;23.20;99.90
27781;DHT22;15167;1.318;103.762;2023-03-01T01:57:31;23.30;99.90
27781;DHT22;15167;1.318;103.762;2023-03-01T02:00:06;23.30;99.90
27781;DHT22;15167;1.318;103.762;2023-03-01T02:02:33;23.30;99.90
27781;DHT22;15167;1.318;103.762;2023-03-01T02:07:48;23.40;99.90
27781;DHT22;15167;1.318;103.762;2023-03-01T02:10:15;23.40;99.90
27781;DHT22;15167;1.318;103.762;2023-03-01T02:12:41;23.50;99.90
27781;DHT22;15167;1.318;103.762;2023-03-01T02:15:07;23.40;99.90
27781;DHT22;15167;1.318;103.762;2023-03-01T02:17:34;23.50;99.90
27781;DHT22;15167;1.318;103.762;2023-03-01T02:20:07;23.50;99.90
27781;DHT22;15167;1.318;103.762;2023-03-01T02:22:35;23.60;99.90
27781;DHT22;15167;1.318;103.762;2023-03-01T02:25:12;23.70;99.90
27781;DHT22;15167;1.318;103.762;2023-03-01T02:30:31;23.70;99.90
27781;DHT22;15167;1.318;103.762;2023-03-01T02:32:58;23.70;99.90
27781;DHT22;15167;1.318;103.762;2023-03-01T02:35:32;23.70;99.90
27781;DHT22;15167;1.318;103.762;2023-03-01T02:37:59;23.60;99.90
27781;DHT22;15167;1.318;103.762;2023-03-01T02:40:28;23.70;99.90
27781;DHT22;15167;1.318;103.762;2023-03-01T02:42:58;23.60;99.90
27781;DHT22;15167;1.318;103.762;2023-03-01T02:45:24;23.70;99.90
27781;DHT22;15167;1.318;103.762;2023-03-01T02:47:53;23.70;99.90
27781;DHT22;15167;1.318;103.762;2023-03-01T02:52:45;23.60;99.90
27781;DHT22;15167;1.318;103.762;2023-03-01T02:55:14;23.60;99.90
27781;DHT22;15167;1.318;103.762;2023-03-01T02:57:43;23.60;99.90
27781;DHT22;15167;1.318;103.762;2023-03-01T03:00:21;23.60;99.90
27781;DHT22;15167;1.318;103.762;2023-03-01T03:02:48;23.60;99.90
27781;DHT22;15167;1.318;103.762;2023-03-01T03:05:19;23.60;99.90
27781;DHT22;15167;1.318;103.762;2023-03-01T03:07:46;23.60;99.90
27781;DHT22;15167;1.318;103.762;2023-03-01T03:10:19;23.60;99.90
27781;DHT22;15167;1.318;103.762;2023-03-01T03:12:50;23.50;99.90
27781;DHT22;15167;1.318;103.762;2023-03-01T03:15:17;23.60;99.90
27781;DHT22;15167;1.318;103.762;2023-03-01T03:17:43;23.60;99.90
27781;DHT22;15167;1.318;103.762;2023-03-01T03:20:10;23.60;99.90
27781;DHT22;15167;1.318;103.762;2023-03-01T03:22:38;23.60;99.90
27781;DHT22;15167;1.318;103.762;2023-03-01T03:25:06;23.60;99.90
27781;DHT22;15167;1.318;103.762;2023-03-01T03:27:38;23.70;99.90
27781;DHT22;15167;1.318;103.762;2023-03-01T03:30:06;23.70;99.90
27781;DHT22;15167;1.318;103.762;2023-03-01T03:32:35;23.70;99.90
27781;DHT22;15167;1.318;103.762;2023-03-01T03:35:03;23.80;99.90
27781;DHT22;15167;1.318;103.762;2023-03-01T03:37:36;23.80;99.90
27781;DHT22;15167;1.318;103.762;2023-03-01T03:40:20;23.90;99.90
27781;DHT22;15167;1.318;103.762;2023-03-01T03:42:46;23.90;99.90
27781;DHT22;15167;1.318;103.762;2023-03-01T03:45:14;23.90;99.90
27781;DHT22;15167;1.318;103.762;2023-03-01T03:47:40;24.00;99.90
27781;DHT22;15167;1.318;103.762;2023-03-01T03:50:06;24.00;99.90
27781;DHT22;15167;1.318;103.762;2023-03-01T03:52:32;24.10;99.90
27781;DHT22;15167;1.318;103.762;2023-03-01T03:54:58;24.20;99.90
27781;DHT22;15167;1.318;103.762;2023-03-01T03:57:24;24.20;99.90
27781;DHT22;15167;1.318;103.762;2023-03-01T03:59:50;24.40;99.90
27781;DHT22;15167;1.318;103.762;2023-03-01T04:02:16;24.30;99.90
27781;DHT22;15167;1.318;103.762;2023-03-01T04:04:48;24.30;99.90
27781;DHT22;15167;1.318;103.762;2023-03-01T04:07:15;24.40;99.90
27781;DHT22;15167;1.318;103.762;2023-03-01T04:09:42;24.40;99.90
27781;DHT22;15167;1.318;103.762;2023-03-01T04:12:08;24.30;99.90
27781;DHT22;15167;1.318;103.762;2023-03-01T04:14:34;24.40;99.90
27781;DHT22;15167;1.318;103.762;2023-03-01T04:17:00;24.40;99.90
27781;DHT22;15167;1.318;103.762;2023-03-01T04:19:27;24.40;99.90
27781;DHT22;15167;1.318;103.762;2023-03-01T04:21:53;24.40;99.90
27781;DHT22;15167;1.318;103.762;2023-03-01T04:24:19;24.50;99.90
27781;DHT22;15167;1.318;103.762;2023-03-01T04:26:45;24.70;99.90
27781;DHT22;15167;1.318;103.762;2023-03-01T04:29:11;24.70;99.90
27781;DHT22;15167;1.318;103.762;2023-03-01T04:31:37;24.90;99.90
27781;DHT22;15167;1.318;103.762;2023-03-01T04:34:03;24.90;99.90
27781;DHT22;15167;1.318;103.762;2023-03-01T04:36:29;24.80;99.90
27781;DHT22;15167;1.318;103.762;2023-03-01T04:38:55;25.00;99.90
27781;DHT22;15167;1.318;103.762;2023-03-01T04:41:23;25.00;99.90
27781;DHT22;15167;1.318;103.762;2023-03-01T04:43:49;25.10;99.90
27781;DHT22;15167;1.318;103.762;2023-03-01T04:46:17;25.00;99.90
27781;DHT22;15167;1.318;103.762;2023-03-01T04:48:45;25.10;99.90
27781;DHT22;15167;1.318;103.762;2023-03-01T04:51:12;25.20;99.90
27781;DHT22;15167;1.318;103.762;2023-03-01T04:53:39;25.10;99.90
27781;DHT22;15167;1.318;103.762;2023-03-01T04:56:05;25.00;99.90
27781;DHT22;15167;1.318;103.762;2023-03-01T04:58:32;25.00;99.90
27781;DHT22;15167;1.318;103.762;2023-03-01T05:00:58;24.70;99.90
27781;DHT22;15167;1.318;103.762;2023-03-01T05:03:24;24.60;99.90
27781;DHT22;15167;1.318;103.762;2023-03-01T05:05:51;24.60;99.90
27781;DHT22;15167;1.318;103.762;2023-03-01T05:08:17;24.60;99.90
27781;DHT22;15167;1.318;103.762;2023-03-01T05:10:52;24.60;99.90
27781;DHT22;15167;1.318;103.762;2023-03-01T05:13:20;24.50;99.90
27781;DHT22;15167;1.318;103.762;2023-03-01T05:15:56;24.40;99.90
27781;DHT22;15167;1.318;103.762;2023-03-01T05:18:23;24.60;99.90
27781;DHT22;15167;1.318;103.762;2023-03-01T05:20:54;24.80;99.90
27781;DHT22;15167;1.318;103.762;2023-03-01T05:23:22;24.90;99.90
27781;DHT22;15167;1.318;103.762;2023-03-01T05:25:48;24.80;99.90
27781;DHT22;15167;1.318;103.762;2023-03-01T05:28:14;24.80;99.90
27781;DHT22;15167;1.318;103.762;2023-03-01T05:30:40;24.70;99.90
27781;DHT22;15167;1.318;103.762;2023-03-01T05:33:07;24.70;99.90
27781;DHT22;15167;1.318;103.762;2023-03-01T05:35:42;24.70;99.90
27781;DHT22;15167;1.318;103.762;2023-03-01T05:38:09;24.80;99.90
27781;DHT22;15167;1.318;103.762;2023-03-01T05:40:38;24.80;99.90
27781;DHT22;15167;1.318;103.762;2023-03-01T05:43:05;24.60;99.90
27781;DHT22;15167;1.318;103.762;2023-03-01T05:45:31;24.70;99.90
27781;DHT22;15167;1.318;103.762;2023-03-01T05:48:00;24.60;99.90
27781;DHT22;15167;1.318;103.762;2023-03-01T05:50:27;24.60;99.90
27781;DHT22;15167;1.318;103.762;2023-03-01T05:53:04;24.50;99.90
27781;DHT22;15167;1.318;103.762;2023-03-01T05:55:33;24.60;99.90
27781;DHT22;15167;1.318;103.762;2023-03-01T05:58:00;24.60;99.90
27781;DHT22;15167;1.318;103.762;2023-03-01T06:00:27;24.60;99.90
27781;DHT22;15167;1.318;103.762;2023-03-01T06:02:54;24.80;99.90
27781;DHT22;15167;1.318;103.762;2023-03-01T06:05:21;24.80;99.90
27781;DHT22;15167;1.318;103.762;2023-03-01T06:07:47;24.90;99.90
27781;DHT22;15167;1.318;103.762;2023-03-01T06:10:14;24.90;99.90
27781;DHT22;15167;1.318;103.762;2023-03-01T06:12:41;24.80;99.90
27781;DHT22;15167;1.318;103.762;2023-03-01T06:15:08;24.90;99.90
27781;DHT22;15167;1.318;103.762;2023-03-01T06:17:37;24.80;99.90
27781;DHT22;15167;1.318;103.762;2023-03-01T06:20:08;24.80;99.90
27781;DHT22;15167;1.318;103.762;2023-03-01T06:22:35;24.70;99.90
27781;DHT22;15167;1.318;103.762;2023-03-01T06:25:01;24.90;99.90
27781;DHT22;15167;1.318;103.762;2023-03-01T06:27:27;25.00;99.90
27781;DHT22;15167;1.318;103.762;2023-03-01T06:29:53;25.20;99.90
27781;DHT22;15167;1.318;103.762;2023-03-01T06:32:19;25.30;99.90
27781;DHT22;15167;1.318;103.762;2023-03-01T06:34:45;25.40;99.90
27781;DHT22;15167;1.318;103.762;2023-03-01T06:37:12;25.20;99.90
27781;DHT22;15167;1.318;103.762;2023-03-01T06:39:38;25.50;99.90
27781;DHT22;15167;1.318;103.762;2023-03-01T06:42:04;25.70;99.90
27781;DHT22;15167;1.318;103.762;2023-03-01T06:44:30;25.80;99.90
27781;DHT22;15167;1.318;103.762;2023-03-01T06:46:56;25.70;99.90
27781;DHT22;15167;1.318;103.762;2023-03-01T06:49:22;25.50;99.90
27781;DHT22;15167;1.318;103.762;2023-03-01T06:51:49;25.50;99.90
27781;DHT22;15167;1.318;103.762;2023-03-01T06:54:15;25.50;99.90
27781;DHT22;15167;1.318;103.762;2023-03-01T06:56:46;25.50;99.90
27781;DHT22;15167;1.318;103.762;2023-03-01T06:59:12;25.30;99.90
27781;DHT22;15167;1.318;103.762;2023-03-01T07:01:38;25.50;99.90
27781;DHT22;15167;1.318;103.762;2023-03-01T07:04:05;25.50;99.90
27781;DHT22;15167;1.318;103.762;2023-03-01T07:06:31;25.50;99.90
27781;DHT22;15167;1.318;103.762;2023-03-01T07:08:57;25.20;99.90
27781;DHT22;15167;1.318;103.762;2023-03-01T07:11:23;25.10;99.90
27781;DHT22;15167;1.318;103.762;2023-03-01T07:13:49;25.10;99.90
27781;DHT22;15167;1.318;103.762;2023-03-01T07:16:15;25.20;99.90
27781;DHT22;15167;1.318;103.762;2023-03-01T07:18:41;25.30;99.90
27781;DHT22;15167;1.318;103.762;2023-03-01T07:21:09;25.30;99.90
27781;DHT22;15167;1.318;103.762;2023-03-01T07:23:35;25.20;99.90
27781;DHT22;15167;1.318;103.762;2023-03-01T07:26:01;25.10;99.90
27781;DHT22;15167;1.318;103.762;2023-03-01T07:28:27;25.00;99.90
27781;DHT22;15167;1.318;103.762;2023-03-01T07:30:54;25.10;99.90
27781;DHT22;15167;1.318;103.762;2023-03-01T07:33:20;25.20;99.90
27781;DHT22;15167;1.318;103.762;2023-03-01T07:35:46;25.10;99.90
27781;DHT22;15167;1.318;103.762;2023-03-01T07:38:12;25.00;99.90
27781;DHT22;15167;1.318;103.762;2023-03-01T07:40:39;25.00;99.90
27781;DHT22;15167;1.318;103.762;2023-03-01T07:43:05;25.00;99.90
27781;DHT22;15167;1.318;103.762;2023-03-01T07:45:31;25.00;99.90
27781;DHT22;15167;1.318;103.762;2023-03-01T07:47:57;25.00;99.90
27781;DHT22;15167;1.318;103.762;2023-03-01T07:50:23;25.00;99.90
27781;DHT22;15167;1.318;103.762;2023-03-01T07:52:49;24.90;99.90
27781;DHT22;15167;1.318;103.762;2023-03-01T07:55:15;24.90;99.90
27781;DHT22;15167;1.318;103.762;2023-03-01T07:57:42;24.90;99.90
27781;DHT22;15167;1.318;103.762;2023-03-01T08:00:10;25.00;99.90
27781;DHT22;15167;1.318;103.762;2023-03-01T08:02:36;25.10;99.90
27781;DHT22;15167;1.318;103.762;2023-03-01T08:05:03;24.90;99.90
27781;DHT22;15167;1.318;103.762;2023-03-01T08:07:29;24.80;99.90
27781;DHT22;15167;1.318;103.762;2023-03-01T08:09:55;24.70;99.90
27781;DHT22;15167;1.318;103.762;2023-03-01T08:12:21;24.70;99.90
27781;DHT22;15167;1.318;103.762;2023-03-01T08:14:47;24.80;99.90
27781;DHT22;15167;1.318;103.762;2023-03-01T08:17:14;24.70;99.90
27781;DHT22;15167;1.318;103.762;2023-03-01T08:19:40;24.70;99.90
27781;DHT22;15167;1.318;103.762;2023-03-01T08:22:06;24.60;99.90
27781;DHT22;15167;1.318;103.762;2023-03-01T08:24:32;24.50;99.90
27781;DHT22;15167;1.318;103.762;2023-03-01T08:26:58;24.60;99.90
27781;DHT22;15167;1.318;103.762;2023-03-01T08:29:24;24.60;99.90
27781;DHT22;15167;1.318;103.762;2023-03-01T08:31:50;24.60;99.90
27781;DHT22;15167;1.318;103.762;2023-03-01T08:34:17;24.70;99.90
27781;DHT22;15167;1.318;103.762;2023-03-01T08:36:44;24.70;99.90
27781;DHT22;15167;1.318;103.762;2023-03-01T08:39:15;24.70;99.90
27781;DHT22;15167;1.318;103.762;2023-03-01T08:41:42;24.60;99.90
27781;DHT22;15167;1.318;103.762;2023-03-01T08:44:09;24.60;99.90
27781;DHT22;15167;1.318;103.762;2023-03-01T08:46:36;24.50;99.90
27781;DHT22;15167;1.318;103.762;2023-03-01T08:49:13;24.60;99.90
27781;DHT22;15167;1.318;103.762;2023-03-01T08:51:39;24.60;99.90
27781;DHT22;15167;1.318;103.762;2023-03-01T08:54:07;24.60;99.90
27781;DHT22;15167;1.318;103.762;2023-03-01T08:56:33;24.70;99.90
27781;DHT22;15167;1.318;103.762;2023-03-01T08:58:59;24.70;99.90
27781;DHT22;15167;1.318;103.762;2023-03-01T09:01:25;24.70;99.90
27781;DHT22;15167;1.318;103.762;2023-03-01T09:03:51;24.60;99.90
27781;DHT22;15167;1.318;103.762;2023-03-01T09:06:18;24.60;99.90
27781;DHT22;15167;1.318;103.762;2023-03-01T09:08:45;24.60;99.90
27781;DHT22;15167;1.318;103.762;2023-03-01T09:11:13;24.60;99.90
27781;DHT22;15167;1.318;103.762;2023-03-01T09:13:39;24.60;99.90
27781;DHT22;15167;1.318;103.762;2023-03-01T09:16:06;24.70;99.90
27781;DHT22;15167;1.318;103.762;2023-03-01T09:18:33;24.70;99.90
27781;DHT22;15167;1.318;103.762;2023-03-01T09:21:06;24.70;99.90
27781;DHT22;15167;1.318;103.762;2023-03-01T09:23:36;24.70;99.90
27781;DHT22;15167;1.318;103.762;2023-03-01T09:26:05;24.70;99.90
27781;DHT22;15167;1.318;103.762;2023-03-01T09:28:31;24.60;99.90
27781;DHT22;15167;1.318;103.762;2023-03-01T09:30:57;24.50;99.90
27781;DHT22;15167;1.318;103.762;2023-03-01T09:33:24;24.40;99.90
27781;DHT22;15167;1.318;103.762;2023-03-01T09:35:55;24.30;99.90
27781;DHT22;15167;1.318;103.762;2023-03-01T09:38:21;24.40;99.90
27781;DHT22;15167;1.318;103.762;2023-03-01T09:40:47;24.40;99.90
27781;DHT22;15167;1.318;103.762;2023-03-01T09:45:40;24.30;99.90
27781;DHT22;15167;1.318;103.762;2023-03-01T09:48:23;24.30;99.90
27781;DHT22;15167;1.318;103.762;2023-03-01T09:50:50;24.20;99.90
27781;DHT22;15167;1.318;103.762;2023-03-01T09:53:17;24.20;99.90
27781;DHT22;15167;1.318;103.762;2023-03-01T09:55:51;24.10;99.90
27781;DHT22;15167;1.318;103.762;2023-03-01T10:01:06;24.10;99.90
27781;DHT22;15167;1.318;103.762;2023-03-01T10:03:40;24.00;99.90
27781;DHT22;15167;1.318;103.762;2023-03-01T10:06:11;24.00;99.90
27781;DHT22;15167;1.318;103.762;2023-03-01T10:08:42;23.90;99.90
27781;DHT22;15167;1.318;103.762;2023-03-01T10:11:19;23.90;99.90
27781;DHT22;15167;1.318;103.762;2023-03-01T10:19:05;23.90;99.90
27781;DHT22;15167;1.318;103.762;2023-03-01T10:21:32;23.80;99.90
27781;DHT22;15167;1.318;103.762;2023-03-01T10:24:08;23.80;99.90
27781;DHT22;15167;1.318;103.762;2023-03-01T10:27:09;23.80;99.90
27781;DHT22;15167;1.318;103.762;2023-03-01T10:29:34;23.80;99.90
27781;DHT22;15167;1.318;103.762;2023-03-01T10:32:03;23.80;99.90
27781;DHT22;15167;1.318;103.762;2023-03-01T10:34:33;23.80;99.90
27781;DHT22;15167;1.318;103.762;2023-03-01T10:37:18;23.80;99.90
27781;DHT22;15167;1.318;103.762;2023-03-01T10:40:06;23.70;99.90
27781;DHT22;15167;1.318;103.762;2023-03-01T10:42:46;23.70;99.90
27781;DHT22;15167;1.318;103.762;2023-03-01T10:45:17;23.70;99.90
27781;DHT22;15167;1.318;103.762;2023-03-01T10:48:02;23.60;99.90
27781;DHT22;15167;1.318;103.762;2023-03-01T10:50:29;23.60;99.90
27781;DHT22;15167;1.318;103.762;2023-03-01T10:52:59;23.60;99.90
27781;DHT22;15167;1.318;103.762;2023-03-01T10:58:08;23.60;99.90
27781;DHT22;15167;1.318;103.762;2023-03-01T11:00:45;23.60;99.90
27781;DHT22;15167;1.318;103.762;2023-03-01T11:03:13;23.50;99.90
27781;DHT22;15167;1.318;103.762;2023-03-01T11:11:19;23.50;99.90
27781;DHT22;15167;1.318;103.762;2023-03-01T11:13:53;23.40;99.90
27781;DHT22;15167;1.318;103.762;2023-03-01T11:16:38;23.50;99.90
27781;DHT22;15167;1.318;103.762;2023-03-01T11:21:35;23.40;99.90
27781;DHT22;15167;1.318;103.762;2023-03-01T11:24:03;23.40;99.90
27781;DHT22;15167;1.318;103.762;2023-03-01T11:26:30;23.40;99.90
27781;DHT22;15167;1.318;103.762;2023-03-01T11:29:00;23.30;99.90
27781;DHT22;15167;1.318;103.762;2023-03-01T11:31:28;23.40;99.90
27781;DHT22;15167;1.318;103.762;2023-03-01T11:36:56;23.40;99.90
27781;DHT22;15167;1.318;103.762;2023-03-01T11:44:37;23.40;99.90
27781;DHT22;15167;1.318;103.762;2023-03-01T11:52:24;23.30;99.90
27781;DHT22;15167;1.318;103.762;2023-03-01T12:10:44;23.30;99.90
27781;DHT22;15167;1.318;103.762;2023-03-01T12:23:53;23.30;99.90
27781;DHT22;15167;1.318;103.762;2023-03-01T12:28:47;23.30;99.90
27781;DHT22;15167;1.318;103.762;2023-03-01T12:51:56;23.10;99.90
27781;DHT22;15167;1.318;103.762;2023-03-01T12:54:27;23.10;99.90
27781;DHT22;15167;1.318;103.762;2023-03-01T12:56:54;23.20;99.90
27781;DHT22;15167;1.318;103.762;2023-03-01T12:59:24;23.20;99.90
27781;DHT22;15167;1.318;103.762;2023-03-01T13:04:52;23.20;99.90
27781;DHT22;15167;1.318;103.762;2023-03-01T13:17:48;23.10;99.90
27781;DHT22;15167;1.318;103.762;2023-03-01T13:20:16;23.10;99.90
27781;DHT22;15167;1.318;103.762;2023-03-01T13:22:43;23.10;99.90
27781;DHT22;15167;1.318;103.762;2023-03-01T13:25:15;23.10;99.90
27781;DHT22;15167;1.318;103.762;2023-03-01T13:27:42;23.10;99.90
27781;DHT22;15167;1.318;103.762;2023-03-01T13:35:48;23.10;99.90
27781;DHT22;15167;1.318;103.762;2023-03-01T13:40:59;23.00;99.90
27781;DHT22;15167;1.318;103.762;2023-03-01T13:43:27;23.00;99.90
27781;DHT22;15167;1.318;103.762;2023-03-01T13:45:54;23.00;99.90
27781;DHT22;15167;1.318;103.762;2023-03-01T13:48:24;23.00;99.90
27781;DHT22;15167;1.318;103.762;2023-03-01T13:50:52;23.00;99.90
27781;DHT22;15167;1.318;103.762;2023-03-01T13:53:19;23.00;99.90
27781;DHT22;15167;1.318;103.762;2023-03-01T13:55:51;23.00;99.90
27781;DHT22;15167;1.318;103.762;2023-03-01T13:58:26;23.00;99.90
27781;DHT22;15167;1.318;103.762;2023-03-01T14:00:56;23.10;99.90
27781;DHT22;15167;1.318;103.762;2023-03-01T14:03:22;23.10;99.90
27781;DHT22;15167;1.318;103.762;2023-03-01T14:08:25;23.10;99.90
27781;DHT22;15167;1.318;103.762;2023-03-01T14:10:59;23.00;99.90
27781;DHT22;15167;1.318;103.762;2023-03-01T14:13:38;23.10;99.90
27781;DHT22;15167;1.318;103.762;2023-03-01T14:16:22;22.50;99.90
27781;DHT22;15167;1.318;103.762;2023-03-01T14:19:35;23.00;99.90
27781;DHT22;15167;1.318;103.762;2023-03-01T14:21:36;23.00;99.90
27781;DHT22;15167;1.318;103.762;2023-03-01T14:24:02;23.00;99.90
27781;DHT22;15167;1.318;103.762;2023-03-01T14:26:29;23.00;99.90
27781;DHT22;15167;1.318;103.762;2023-03-01T14:28:57;23.00;99.90
27781;DHT22;15167;1.318;103.762;2023-03-01T14:31:34;23.00;99.90
27781;DHT22;15167;1.318;103.762;2023-03-01T14:34:00;23.00;99.90
27781;DHT22;15167;1.318;103.762;2023-03-01T14:36:30;23.00;99.90
27781;DHT22;15167;1.318;103.762;2023-03-01T14:38:57;23.00;99.90
27781;DHT22;15167;1.318;103.762;2023-03-01T14:41:34;23.00;99.90
27781;DHT22;15167;1.318;103.762;2023-03-01T14:44:02;23.00;99.90
27781;DHT22;15167;1.318;103.762;2023-03-01T14:46:36;23.00;99.90
27781;DHT22;15167;1.318;103.762;2023-03-01T14:51:29;23.00;99.90
27781;DHT22;15167;1.318;103.762;2023-03-01T14:53:55;23.00;99.90
27781;DHT22;15167;1.318;103.762;2023-03-01T14:56:21;23.00;99.90
27781;DHT22;15167;1.318;103.762;2023-03-01T14:58:52;23.00;99.90
27781;DHT22;15167;1.318;103.762;2023-03-01T15:01:18;23.10;99.90
27781;DHT22;15167;1.318;103.762;2023-03-01T15:03:48;23.10;99.90
27781;DHT22;15167;1.318;103.762;2023-03-01T15:06:15;23.10;99.90
27781;DHT22;15167;1.318;103.762;2023-03-01T15:08:43;23.10;99.90
27781;DHT22;15167;1.318;103.762;2023-03-01T15:13:39;23.10;99.90
27781;DHT22;15167;1.318;103.762;2023-03-01T15:18:32;23.10;99.90
27781;DHT22;15167;1.318;103.762;2023-03-01T15:21:09;23.10;99.90
27781;DHT22;15167;1.318;103.762;2023-03-01T15:23:36;23.10;99.90
27781;DHT22;15167;1.318;103.762;2023-03-01T15:26:03;23.10;99.90
27781;DHT22;15167;1.318;103.762;2023-03-01T15:28:30;23.10;99.90
27781;DHT22;15167;1.318;103.762;2023-03-01T15:30:58;23.10;99.90
27781;DHT22;15167;1.318;103.762;2023-03-01T15:33:28;23.10;99.90
27781;DHT22;15167;1.318;103.762;2023-03-01T15:35:59;23.20;99.90
27781;DHT22;15167;1.318;103.762;2023-03-01T15:40:55;23.20;99.90
27781;DHT22;15167;1.318;103.762;2023-03-01T15:43:37;23.20;99.90
27781;DHT22;15167;1.318;103.762;2023-03-01T15:46:03;23.20;99.90
27781;DHT22;15167;1.318;103.762;2023-03-01T15:48:30;23.20;99.90
27781;DHT22;15167;1.318;103.762;2023-03-01T15:50:57;23.20;99.90
27781;DHT22;15167;1.318;103.762;2023-03-01T15:53:24;23.20;99.90
27781;DHT22;15167;1.318;103.762;2023-03-01T15:55:50;23.10;99.90
27781;DHT22;15167;1.318;103.762;2023-03-01T15:58:20;23.10;99.90
27781;DHT22;15167;1.318;103.762;2023-03-01T16:00:47;23.10;99.90
27781;DHT22;15167;1.318;103.762;2023-03-01T16:03:14;23.10;99.90
27781;DHT22;15167;1.318;103.762;2023-03-01T16:05:47;23.10;99.90
27781;DHT22;15167;1.318;103.762;2023-03-01T16:08:13;23.10;99.90
27781;DHT22;15167;1.318;103.762;2023-03-01T16:10:40;23.10;99.90
27781;DHT22;15167;1.318;103.762;2023-03-01T16:13:12;23.10;99.90
27781;DHT22;15167;1.318;103.762;2023-03-01T16:15:38;23.10;99.90
27781;DHT22;15167;1.318;103.762;2023-03-01T16:18:05;23.10;99.90
27781;DHT22;15167;1.318;103.762;2023-03-01T16:20:33;23.10;99.90
27781;DHT22;15167;1.318;103.762;2023-03-01T16:23:03;23.10;99.90
27781;DHT22;15167;1.318;103.762;2023-03-01T16:25:29;23.10;99.90
27781;DHT22;15167;1.318;103.762;2023-03-01T16:27:55;23.10;99.90
27781;DHT22;15167;1.318;103.762;2023-03-01T16:30:23;23.10;99.90
27781;DHT22;15167;1.318;103.762;2023-03-01T16:32:50;23.10;99.90
27781;DHT22;15167;1.318;103.762;2023-03-01T16:35:17;23.10;99.90
27781;DHT22;15167;1.318;103.762;2023-03-01T16:37:43;23.10;99.90
27781;DHT22;15167;1.318;103.762;2023-03-01T16:40:17;23.10;99.90
27781;DHT22;15167;1.318;103.762;2023-03-01T16:42:43;23.10;99.90
27781;DHT22;15167;1.318;103.762;2023-03-01T16:45:09;23.10;99.90
27781;DHT22;15167;1.318;103.762;2023-03-01T16:47:35;23.10;99.90
27781;DHT22;15167;1.318;103.762;2023-03-01T16:50:02;23.10;99.90
27781;DHT22;15167;1.318;103.762;2023-03-01T16:52:28;23.10;99.90
27781;DHT22;15167;1.318;103.762;2023-03-01T16:54:54;23.10;99.90
27781;DHT22;15167;1.318;103.762;2023-03-01T16:57:20;23.10;99.90
27781;DHT22;15167;1.318;103.762;2023-03-01T16:59:46;23.10;99.90
27781;DHT22;15167;1.318;103.762;2023-03-01T17:02:12;23.10;99.90
27781;DHT22;15167;1.318;103.762;2023-03-01T17:04:40;23.00;99.90
27781;DHT22;15167;1.318;103.762;2023-03-01T17:07:06;23.00;99.90
27781;DHT22;15167;1.318;103.762;2023-03-01T17:09:36;23.00;99.90
27781;DHT22;15167;1.318;103.762;2023-03-01T17:12:03;23.00;99.90
27781;DHT22;15167;1.318;103.762;2023-03-01T17:14:29;23.00;99.90
27781;DHT22;15167;1.318;103.762;2023-03-01T17:16:55;23.00;99.90
27781;DHT22;15167;1.318;103.762;2023-03-01T17:19:21;22.90;99.90
27781;DHT22;15167;1.318;103.762;2023-03-01T17:21:48;23.00;99.90
27781;DHT22;15167;1.318;103.762;2023-03-01T17:24:14;22.90;99.90
27781;DHT22;15167;1.318;103.762;2023-03-01T17:26:40;22.90;99.90
27781;DHT22;15167;1.318;103.762;2023-03-01T17:29:06;22.90;99.90
27781;DHT22;15167;1.318;103.762;2023-03-01T17:31:33;22.90;99.90
27781;DHT22;15167;1.318;103.762;2023-03-01T17:33:59;22.90;99.90
27781;DHT22;15167;1.318;103.762;2023-03-01T17:36:25;22.90;99.90